createdAt,value
2022-12-13T00:01:13.496Z,46.39
2022-12-13T00:03:40.317Z,46.24
2022-12-13T00:06:07.862Z,45.70
2022-12-13T00:08:34.479Z,45.70
2022-12-13T00:11:03.446Z,45.89
2022-12-13T00:13:30.240Z,45.88
2022-12-13T00:15:59.924Z,45.81
2022-12-13T00:18:26.703Z,46.75
2022-12-13T00:20:53.491Z,46.81
2022-12-13T00:23:20.196Z,47.33
2022-12-13T00:25:47.484Z,47.20
2022-12-13T00:28:14.331Z,47.21
2022-12-13T00:30:41.101Z,46.44
2022-12-13T00:33:08.047Z,46.01
2022-12-13T00:35:39.279Z,45.84
2022-12-13T00:38:05.952Z,46.09
2022-12-13T00:40:32.613Z,45.60
2022-12-13T00:42:59.342Z,45.16
2022-12-13T00:45:25.963Z,45.31
2022-12-13T00:47:52.609Z,45.61
2022-12-13T00:50:19.353Z,44.69
2022-12-13T00:52:46.417Z,44.24
2022-12-13T00:55:13.341Z,45.17
2022-12-13T00:57:40.270Z,44.66
2022-12-13T01:00:07.605Z,44.42
2022-12-13T01:02:34.192Z,44.63
2022-12-13T01:05:00.776Z,44.76
2022-12-13T01:07:27.463Z,44.56
2022-12-13T01:09:54.166Z,44.45
2022-12-13T01:12:20.920Z,44.58
2022-12-13T01:14:53.049Z,44.76
2022-12-13T01:17:22.518Z,44.71
2022-12-13T01:19:49.234Z,43.93
2022-12-13T01:22:15.925Z,44.30
2022-12-13T01:24:42.574Z,44.26
2022-12-13T01:27:09.231Z,44.26
2022-12-13T01:29:35.833Z,44.59
2022-12-13T01:32:02.423Z,44.16
2022-12-13T01:34:29.106Z,44.68
2022-12-13T01:36:58.296Z,44.56
2022-12-13T01:39:26.602Z,44.38
2022-12-13T01:41:54.021Z,44.55
2022-12-13T01:45:11.605Z,43.98
2022-12-13T01:47:42.876Z,43.89
2022-12-13T01:50:15.616Z,44.46
2022-12-13T01:52:42.534Z,44.33
2022-12-13T01:55:09.304Z,43.69
2022-12-13T01:57:39.613Z,45.45
2022-12-13T02:00:09.442Z,44.42
2022-12-13T02:02:36.118Z,43.72
2022-12-13T02:05:26.079Z,43.69
2022-12-13T02:07:52.769Z,43.84
2022-12-13T02:10:19.434Z,44.41
2022-12-13T02:12:46.106Z,44.12
2022-12-13T02:15:16.559Z,43.90
2022-12-13T02:18:05.909Z,43.75
2022-12-13T02:21:03.055Z,43.34
2022-12-13T02:24:09.155Z,43.49
2022-12-13T02:26:43.505Z,43.92
2022-12-13T02:29:34.798Z,42.89
2022-12-13T02:32:16.363Z,43.34
2022-12-13T02:34:51.594Z,43.35
2022-12-13T02:37:22.403Z,43.74
2022-12-13T02:40:01.195Z,44.01
2022-12-13T02:42:31.535Z,43.47
2022-12-13T02:45:21.206Z,43.05
2022-12-13T02:47:47.988Z,43.42
2022-12-13T02:50:14.647Z,44.16
2022-12-13T02:52:41.291Z,44.17
2022-12-13T02:55:08.984Z,44.13
2022-12-13T02:57:40.296Z,44.38
2022-12-13T03:00:08.668Z,44.49
2022-12-13T03:03:23.287Z,45.10
2022-12-13T03:06:05.180Z,45.72
2022-12-13T03:08:36.867Z,45.08
2022-12-13T03:11:10.724Z,45.44
2022-12-13T03:13:56.817Z,44.68
2022-12-13T03:16:31.386Z,45.77
2022-12-13T03:18:59.115Z,45.33
2022-12-13T03:21:25.886Z,45.03
2022-12-13T03:23:52.618Z,45.22
2022-12-13T03:26:25.939Z,44.67
2022-12-13T03:28:52.731Z,45.31
2022-12-13T03:31:19.463Z,45.35
2022-12-13T03:33:46.323Z,45.43
2022-12-13T03:36:12.959Z,45.66
2022-12-13T03:38:39.710Z,45.43
2022-12-13T03:41:09.045Z,45.16
2022-12-13T03:43:35.759Z,46.32
2022-12-13T03:46:02.420Z,45.28
2022-12-13T03:48:29.122Z,46.43
2022-12-13T03:50:56.416Z,46.99
2022-12-13T03:53:33.663Z,46.24
2022-12-13T03:56:04.948Z,47.27
2022-12-13T03:58:35.806Z,47.98
2022-12-13T04:01:14.171Z,48.81
2022-12-13T04:03:41.918Z,48.66
2022-12-13T04:06:08.917Z,49.15
2022-12-13T04:08:36.009Z,49.73
2022-12-13T04:11:02.962Z,48.37
2022-12-13T04:13:29.616Z,48.30
2022-12-13T04:15:56.249Z,48.24
2022-12-13T04:18:22.870Z,47.28
2022-12-13T04:20:49.654Z,47.37
2022-12-13T04:23:16.291Z,46.67
2022-12-13T04:25:43.294Z,45.90
2022-12-13T04:28:10.808Z,47.01
2022-12-13T04:30:37.470Z,46.50
2022-12-13T04:33:04.182Z,46.71
2022-12-13T04:35:34.914Z,46.99
2022-12-13T04:38:01.642Z,47.10
2022-12-13T04:40:28.359Z,46.46
2022-12-13T04:42:56.196Z,47.17
2022-12-13T04:45:22.798Z,47.52
2022-12-13T04:47:49.479Z,46.42
2022-12-13T04:50:16.115Z,46.80
2022-12-13T04:52:42.742Z,45.92
2022-12-13T04:55:09.450Z,46.93
2022-12-13T04:57:36.091Z,46.53
2022-12-13T05:00:04.389Z,45.82
2022-12-13T05:02:31.157Z,45.95
2022-12-13T05:04:57.884Z,45.96
2022-12-13T05:07:25.878Z,46.20
2022-12-13T05:09:52.633Z,46.72
2022-12-13T05:12:23.133Z,46.68
2022-12-13T05:14:51.187Z,46.64
2022-12-13T05:17:19.001Z,46.23
2022-12-13T05:19:45.636Z,46.18
2022-12-13T05:22:16.213Z,47.04
2022-12-13T05:24:45.977Z,47.12
2022-12-13T05:27:23.821Z,47.36
2022-12-13T05:30:02.678Z,48.44
2022-12-13T05:32:44.221Z,47.44
2022-12-13T05:35:15.076Z,47.79
2022-12-13T05:37:53.559Z,47.69
2022-12-13T05:40:24.573Z,48.19
2022-12-13T05:42:51.332Z,47.37
2022-12-13T05:45:18.778Z,47.22
2022-12-13T05:47:45.798Z,47.19
2022-12-13T05:50:12.931Z,47.39
2022-12-13T05:52:39.656Z,47.54
2022-12-13T05:55:06.647Z,47.62
2022-12-13T05:57:34.103Z,47.84
2022-12-13T06:00:00.929Z,47.62
2022-12-13T06:02:27.823Z,48.34
2022-12-13T06:04:54.690Z,47.74
2022-12-13T06:07:21.362Z,47.43
2022-12-13T06:09:48.077Z,47.04
2022-12-13T06:12:32.622Z,47.96
2022-12-13T06:15:01.019Z,47.99
2022-12-13T06:17:46.362Z,47.19
2022-12-13T06:20:23.420Z,47.68
2022-12-13T06:22:55.255Z,46.85
2022-12-13T06:25:30.477Z,46.35
2022-12-13T06:28:00.833Z,47.26
2022-12-13T06:30:28.655Z,47.28
2022-12-13T06:32:55.353Z,46.30
2022-12-13T06:35:28.401Z,46.89
2022-12-13T06:37:55.949Z,46.33
2022-12-13T06:40:31.075Z,46.80
2022-12-13T06:42:57.782Z,48.05
2022-12-13T06:45:24.677Z,46.55
2022-12-13T06:47:51.291Z,46.79
2022-12-13T06:50:17.929Z,46.98
2022-12-13T06:52:46.100Z,45.37
2022-12-13T06:55:12.727Z,45.30
2022-12-13T06:57:40.733Z,45.54
2022-12-13T07:00:08.594Z,45.05
2022-12-13T07:02:35.377Z,46.37
2022-12-13T07:05:02.145Z,46.26
2022-12-13T07:07:28.761Z,45.95
2022-12-13T07:09:55.437Z,46.55
2022-12-13T07:12:22.298Z,46.72
2022-12-13T07:14:48.893Z,46.34
2022-12-13T07:17:32.918Z,45.68
2022-12-13T07:20:06.864Z,45.82
2022-12-13T07:22:34.791Z,46.21
2022-12-13T07:25:03.079Z,46.53
2022-12-13T07:27:29.786Z,46.66
2022-12-13T07:29:56.382Z,47.64
2022-12-13T07:32:22.979Z,46.06
2022-12-13T07:34:49.807Z,47.33
2022-12-13T07:37:30.174Z,47.70
2022-12-13T07:40:03.308Z,47.69
2022-12-13T07:42:31.214Z,47.67
2022-12-13T07:44:57.900Z,47.40
2022-12-13T07:47:29.074Z,47.13
2022-12-13T07:49:55.724Z,46.79
2022-12-13T07:52:22.544Z,45.40
2022-12-13T07:54:49.252Z,45.66
2022-12-13T07:57:16.120Z,45.56
2022-12-13T07:59:42.757Z,45.68
2022-12-13T08:02:12.153Z,46.33
2022-12-13T08:04:38.852Z,46.34
2022-12-13T08:07:09.036Z,45.96
2022-12-13T08:09:35.821Z,46.06
2022-12-13T08:12:02.504Z,45.39
2022-12-13T08:14:29.203Z,45.57
2022-12-13T08:16:55.853Z,45.88
2022-12-13T08:19:22.459Z,46.01
2022-12-13T08:21:58.307Z,49.18
2022-12-13T08:24:26.586Z,45.82
2022-12-13T08:26:53.224Z,45.10
2022-12-13T08:29:23.230Z,45.48
2022-12-13T08:32:01.709Z,45.50
2022-12-13T08:34:28.551Z,45.48
2022-12-13T08:37:02.818Z,45.57
2022-12-13T08:39:34.237Z,44.92
2022-12-13T08:42:16.505Z,44.91
2022-12-13T08:44:51.502Z,45.54
2022-12-13T08:47:24.874Z,46.47
2022-12-13T08:50:02.912Z,46.32
2022-12-13T08:52:40.396Z,46.53
2022-12-13T08:55:12.143Z,46.01
2022-12-13T08:57:39.126Z,45.53
2022-12-13T09:00:06.284Z,46.29
2022-12-13T09:02:37.720Z,46.20
2022-12-13T09:05:05.668Z,47.99
2022-12-13T09:07:32.521Z,47.68
2022-12-13T09:09:59.199Z,47.53
2022-12-13T09:12:33.970Z,47.39
2022-12-13T09:15:22.554Z,47.40
2022-12-13T09:17:52.580Z,47.60
2022-12-13T09:20:29.271Z,47.72
2022-12-13T09:23:02.138Z,47.25
2022-12-13T09:25:37.393Z,47.68
2022-12-13T09:28:07.291Z,47.20
2022-12-13T09:30:34.946Z,47.54
2022-12-13T09:33:29.156Z,48.37
2022-12-13T09:35:48.229Z,48.68
2022-12-13T09:38:14.894Z,48.59
2022-12-13T09:40:42.588Z,49.64
2022-12-13T09:43:21.944Z,50.26
2022-12-13T09:45:50.571Z,50.05
2022-12-13T09:48:22.297Z,50.08
2022-12-13T09:50:58.338Z,50.96
2022-12-13T09:53:36.767Z,50.33
2022-12-13T09:56:10.902Z,51.02
2022-12-13T09:58:37.943Z,51.45
2022-12-13T10:01:04.740Z,51.70
2022-12-13T10:03:31.402Z,51.95
2022-12-13T10:06:07.277Z,51.06
2022-12-13T10:08:39.831Z,51.63
2022-12-13T10:11:06.457Z,52.56
2022-12-13T10:13:41.350Z,52.03
2022-12-13T10:16:48.669Z,51.93
2022-12-13T10:19:38.328Z,52.29
2022-12-13T10:22:05.489Z,51.77
2022-12-13T10:24:55.204Z,52.96
2022-12-13T10:27:30.032Z,52.62
2022-12-13T10:29:59.481Z,52.49
2022-12-13T10:32:26.451Z,53.58
2022-12-13T10:34:53.212Z,53.54
2022-12-13T10:37:31.964Z,53.94
2022-12-13T10:39:58.858Z,54.20
2022-12-13T10:42:29.219Z,54.20
2022-12-13T10:45:14.393Z,54.11
2022-12-13T10:47:43.139Z,54.65
2022-12-13T10:50:25.856Z,55.55
2022-12-13T10:52:52.556Z,54.88
2022-12-13T10:55:33.893Z,55.11
2022-12-13T10:58:05.105Z,54.85
2022-12-13T11:00:35.419Z,55.47
2022-12-13T11:03:02.115Z,55.53
2022-12-13T11:05:30.537Z,55.67
2022-12-13T11:08:12.707Z,56.00
2022-12-13T11:10:39.301Z,54.74
2022-12-13T11:13:06.758Z,56.08
2022-12-13T11:15:34.658Z,56.22
2022-12-13T11:18:02.509Z,56.31
2022-12-13T11:20:31.816Z,56.09
2022-12-13T11:23:02.987Z,54.94
2022-12-13T11:25:42.986Z,55.50
2022-12-13T11:28:26.487Z,55.90
2022-12-13T11:31:26.371Z,54.92
2022-12-13T11:34:02.334Z,55.29
2022-12-13T11:36:38.540Z,56.08
2022-12-13T11:39:28.058Z,55.63
2022-12-13T11:42:01.374Z,56.11
2022-12-13T11:44:29.780Z,56.17
2022-12-13T11:46:58.170Z,55.44
2022-12-13T11:49:38.556Z,55.67
2022-12-13T11:52:30.923Z,54.98
2022-12-13T11:55:24.645Z,55.59
2022-12-13T11:58:01.771Z,55.42
2022-12-13T12:00:33.794Z,55.47
2022-12-13T12:03:14.327Z,55.91
2022-12-13T12:05:42.997Z,55.43
2022-12-13T12:08:32.471Z,55.47
2022-12-13T12:11:16.941Z,55.67
2022-12-13T12:14:10.839Z,56.29
2022-12-13T12:16:46.097Z,56.39
2022-12-13T12:19:25.408Z,55.22
2022-12-13T12:22:16.143Z,55.54
2022-12-13T12:25:04.453Z,56.13
2022-12-13T12:27:34.891Z,56.38
2022-12-13T12:30:12.403Z,56.96
2022-12-13T12:32:49.994Z,57.16
2022-12-13T12:35:56.649Z,58.51
2022-12-13T12:38:38.998Z,57.81
2022-12-13T12:41:27.243Z,57.08
2022-12-13T12:44:18.749Z,56.89
2022-12-13T12:50:17.114Z,56.25
2022-12-13T12:52:58.722Z,55.90
2022-12-13T12:55:45.593Z,55.58
2022-12-13T12:58:33.788Z,56.07
2022-12-13T13:01:22.622Z,56.87
2022-12-13T13:03:49.682Z,56.03
2022-12-13T13:06:21.004Z,55.13
2022-12-13T13:08:55.105Z,56.17
2022-12-13T13:11:24.258Z,55.09
2022-12-13T13:14:01.676Z,55.88
2022-12-13T13:16:40.393Z,56.32
2022-12-13T13:19:15.949Z,56.62
2022-12-13T13:21:47.387Z,56.32
2022-12-13T13:24:21.922Z,56.94
2022-12-13T13:26:53.556Z,58.36
2022-12-13T13:29:29.410Z,58.86
2022-12-13T13:32:11.173Z,58.24
2022-12-13T13:34:38.519Z,58.09
2022-12-13T13:37:22.836Z,58.38
2022-12-13T13:39:52.562Z,58.68
2022-12-13T13:42:21.008Z,57.84
2022-12-13T13:44:50.311Z,57.23
2022-12-13T13:47:19.751Z,57.39
2022-12-13T13:50:02.261Z,56.99
2022-12-13T13:52:44.865Z,57.33
2022-12-13T13:55:38.892Z,57.50
2022-12-13T13:58:32.946Z,57.71
2022-12-13T14:01:02.544Z,57.74
2022-12-13T14:03:50.448Z,57.81
2022-12-13T14:06:31.879Z,58.54
2022-12-13T14:09:43.659Z,57.78
2022-12-13T14:12:32.172Z,57.25
2022-12-13T14:15:16.942Z,58.28
2022-12-13T14:18:14.366Z,58.97
2022-12-13T14:21:00.687Z,58.65
2022-12-13T14:23:42.935Z,58.81
2022-12-13T14:26:37.138Z,58.75
2022-12-13T14:29:05.615Z,58.11
2022-12-13T14:31:45.346Z,58.13
2022-12-13T14:34:19.688Z,58.13
2022-12-13T14:36:53.811Z,57.65
2022-12-13T14:39:25.527Z,57.98
2022-12-13T14:41:58.756Z,57.95
2022-12-13T14:44:29.959Z,58.14
2022-12-13T14:47:00.651Z,57.86
2022-12-13T14:49:28.910Z,57.81
2022-12-13T14:52:02.801Z,57.72
2022-12-13T14:54:41.262Z,57.24
2022-12-13T14:57:14.975Z,58.06
2022-12-13T14:59:50.208Z,58.90
2022-12-13T15:02:30.881Z,58.70
2022-12-13T15:05:02.840Z,57.89
2022-12-13T15:07:39.424Z,57.90
2022-12-13T15:10:47.972Z,57.94
2022-12-13T15:13:39.670Z,57.11
2022-12-13T15:16:11.209Z,56.50
2022-12-13T15:18:38.234Z,56.99
2022-12-13T15:21:13.268Z,57.56
2022-12-13T15:23:49.564Z,57.23
2022-12-13T15:26:28.620Z,56.92
2022-12-13T15:29:10.169Z,58.00
2022-12-13T15:31:38.022Z,57.35
2022-12-13T15:34:28.509Z,57.95
2022-12-13T15:36:56.555Z,58.03
2022-12-13T15:39:24.055Z,58.78
2022-12-13T15:41:50.684Z,58.22
2022-12-13T15:44:33.844Z,58.59
2022-12-13T15:47:08.131Z,57.73
2022-12-13T15:49:40.496Z,57.47
2022-12-13T15:55:01.455Z,57.63
2022-12-13T15:57:30.128Z,57.74
2022-12-13T16:00:30.218Z,57.82
2022-12-13T16:03:12.342Z,57.87
2022-12-13T16:05:41.509Z,57.70
2022-12-13T16:08:15.011Z,58.80
2022-12-13T16:10:50.906Z,57.89
2022-12-13T16:13:31.483Z,58.14
2022-12-13T16:16:09.478Z,58.34
2022-12-13T16:18:46.641Z,58.33
2022-12-13T16:21:13.288Z,58.07
2022-12-13T16:23:39.887Z,58.09
2022-12-13T16:26:09.251Z,58.77
2022-12-13T16:28:36.102Z,58.87
2022-12-13T16:31:25.624Z,58.69
2022-12-13T16:33:52.340Z,58.74
2022-12-13T16:36:18.941Z,59.25
2022-12-13T16:38:45.553Z,58.66
2022-12-13T16:41:12.167Z,58.34
2022-12-13T16:43:55.828Z,57.98
2022-12-13T16:47:12.562Z,58.18
2022-12-13T16:49:24.371Z,57.81
2022-12-13T16:51:51.049Z,58.04
2022-12-13T16:54:18.571Z,58.43
2022-12-13T16:56:45.354Z,58.44
2022-12-13T16:59:16.379Z,58.49
2022-12-13T17:01:43.778Z,58.63
2022-12-13T17:04:16.323Z,58.54
2022-12-13T17:06:46.066Z,58.86
2022-12-13T17:09:13.086Z,58.47
2022-12-13T17:11:39.682Z,58.25
2022-12-13T17:14:06.282Z,58.06
2022-12-13T17:16:33.075Z,57.95
2022-12-13T17:18:59.737Z,58.28
2022-12-13T17:21:26.526Z,58.00
2022-12-13T17:23:56.960Z,57.92
2022-12-13T17:26:23.654Z,58.39
2022-12-13T17:28:50.373Z,58.91
2022-12-13T17:31:17.105Z,58.15
2022-12-13T17:33:43.826Z,58.00
2022-12-13T17:36:11.265Z,58.27
2022-12-13T17:38:37.944Z,59.21
2022-12-13T17:41:04.592Z,58.35
2022-12-13T17:43:35.647Z,58.63
2022-12-13T17:46:07.299Z,59.26
2022-12-13T17:48:39.854Z,58.28
2022-12-13T17:51:08.187Z,58.59
2022-12-13T17:53:34.877Z,58.36
2022-12-13T17:56:05.073Z,59.42
2022-12-13T17:58:31.712Z,59.28
2022-12-13T18:00:58.918Z,59.57
2022-12-13T18:03:26.012Z,59.16
2022-12-13T18:05:59.051Z,59.61
2022-12-13T18:08:26.179Z,59.71
2022-12-13T18:11:30.818Z,59.88
2022-12-13T18:13:43.205Z,59.34
2022-12-13T18:16:11.442Z,58.49
2022-12-13T18:18:38.126Z,58.81
2022-12-13T18:21:05.804Z,57.96
2022-12-13T18:23:33.155Z,58.68
2022-12-13T18:26:00.770Z,58.54
2022-12-13T18:28:27.739Z,58.45
2022-12-13T18:30:58.273Z,58.74
2022-12-13T18:33:25.222Z,58.82
2022-12-13T18:35:52.063Z,58.98
2022-12-13T18:38:18.747Z,59.24
2022-12-13T18:40:45.405Z,59.54
2022-12-13T18:43:12.084Z,59.15
2022-12-13T18:45:38.756Z,60.06
2022-12-13T18:48:05.715Z,59.09
2022-12-13T18:50:33.507Z,59.25
2022-12-13T18:53:00.157Z,59.40
2022-12-13T18:55:27.803Z,59.46
2022-12-13T18:57:54.409Z,59.61
2022-12-13T19:00:21.133Z,58.38
2022-12-13T19:02:47.830Z,58.90
2022-12-13T19:05:14.648Z,59.16
2022-12-13T19:07:41.241Z,59.44
2022-12-13T19:10:08.111Z,58.32
2022-12-13T19:12:34.775Z,58.51
2022-12-13T19:15:01.977Z,57.88
2022-12-13T19:17:28.737Z,57.47
2022-12-13T19:19:55.558Z,58.06
2022-12-13T19:22:22.203Z,57.14
2022-12-13T19:24:48.872Z,58.07
2022-12-13T19:27:15.555Z,57.57
2022-12-13T19:29:42.966Z,57.32
2022-12-13T19:32:09.659Z,57.03
2022-12-13T19:34:36.298Z,57.33
2022-12-13T19:37:06.341Z,56.85
2022-12-13T19:39:34.396Z,57.68
2022-12-13T19:42:01.007Z,57.51
2022-12-13T19:44:27.669Z,57.92
2022-12-13T19:46:54.361Z,57.33
2022-12-13T19:49:21.020Z,57.56
2022-12-13T19:51:47.809Z,57.36
2022-12-13T19:54:14.504Z,57.58
2022-12-13T19:56:41.181Z,57.50
2022-12-13T19:59:07.862Z,57.15
2022-12-13T20:01:34.558Z,56.50
2022-12-13T20:04:01.407Z,57.11
2022-12-13T20:06:28.121Z,57.12
2022-12-13T20:08:54.772Z,56.27
2022-12-13T20:11:22.071Z,56.56
2022-12-13T20:13:49.239Z,56.06
2022-12-13T20:16:17.566Z,56.73
2022-12-13T20:18:44.363Z,56.87
2022-12-13T20:21:12.462Z,56.80
2022-12-13T20:23:40.282Z,57.44
2022-12-13T20:26:13.740Z,57.50
2022-12-13T20:28:40.490Z,56.92
2022-12-13T20:31:14.552Z,57.67
2022-12-13T20:33:41.702Z,58.14
2022-12-13T20:36:26.110Z,57.45
2022-12-13T20:38:57.280Z,57.31
2022-12-13T20:41:24.836Z,57.09
2022-12-13T20:43:52.636Z,57.46
2022-12-13T20:46:19.420Z,56.90
2022-12-13T20:48:46.679Z,57.11
2022-12-13T20:51:14.685Z,58.29
2022-12-13T20:53:42.522Z,57.60
2022-12-13T20:56:11.014Z,58.12
2022-12-13T20:58:40.122Z,58.02
2022-12-13T21:01:07.386Z,58.00
2022-12-13T21:03:34.048Z,58.46
2022-12-13T21:06:00.802Z,58.02
2022-12-13T21:08:27.466Z,58.31
2022-12-13T21:11:01.894Z,58.11
2022-12-13T21:13:32.143Z,57.82
2022-12-13T21:16:05.528Z,58.50
2022-12-13T21:18:32.220Z,58.08
2022-12-13T21:20:58.892Z,57.68
2022-12-13T21:23:25.948Z,58.43
2022-12-13T21:25:52.742Z,57.80
2022-12-13T21:28:19.520Z,57.50
2022-12-13T21:30:46.175Z,58.06
2022-12-13T21:33:12.921Z,57.59
2022-12-13T21:35:39.588Z,57.41
2022-12-13T21:38:06.266Z,57.52
2022-12-13T21:40:32.937Z,57.15
2022-12-13T21:42:59.683Z,57.68
2022-12-13T21:45:26.359Z,58.25
2022-12-13T21:47:53.054Z,57.66
2022-12-13T21:50:19.684Z,57.30
2022-12-13T21:52:49.630Z,57.88
2022-12-13T21:55:38.356Z,56.97
2022-12-13T21:58:07.678Z,57.22
2022-12-13T22:00:35.384Z,56.39
2022-12-13T22:03:02.125Z,56.33
2022-12-13T22:05:28.785Z,56.56
2022-12-13T22:07:55.396Z,56.39
2022-12-13T22:10:22.117Z,56.75
2022-12-13T22:12:49.987Z,56.00
2022-12-13T22:15:16.636Z,56.07
2022-12-13T22:17:43.312Z,56.49
2022-12-13T22:20:12.150Z,57.73
2022-12-13T22:22:40.184Z,58.49
2022-12-13T22:25:07.464Z,57.80
2022-12-13T22:27:34.185Z,58.77
2022-12-13T22:30:00.972Z,59.83
2022-12-13T22:32:30.159Z,60.27
2022-12-13T22:34:56.778Z,59.54
2022-12-13T22:37:23.444Z,58.93
2022-12-13T22:39:50.056Z,58.09
2022-12-13T22:42:16.651Z,58.43
2022-12-13T22:44:43.249Z,58.03
2022-12-13T22:47:09.895Z,58.07
2022-12-13T22:49:36.578Z,58.56
2022-12-13T22:52:03.397Z,58.90
2022-12-13T22:54:30.116Z,58.18
2022-12-13T22:56:56.714Z,58.74
2022-12-13T22:59:23.359Z,58.48
2022-12-13T23:01:50.019Z,58.40
2022-12-13T23:04:16.706Z,58.97
2022-12-13T23:06:43.427Z,58.43
2022-12-13T23:09:13.210Z,57.11
2022-12-13T23:11:39.868Z,57.71
2022-12-13T23:14:09.592Z,59.35
2022-12-13T23:16:36.337Z,58.56
2022-12-13T23:19:39.751Z,59.19
2022-12-13T23:21:53.063Z,57.80
2022-12-13T23:24:19.683Z,58.73
2022-12-13T23:26:46.575Z,58.37
2022-12-13T23:29:13.252Z,58.38
2022-12-13T23:31:42.769Z,58.72
2022-12-13T23:34:15.437Z,58.89
2022-12-13T23:36:42.281Z,58.74
2022-12-13T23:39:09.151Z,58.89
2022-12-13T23:41:35.964Z,58.27
2022-12-13T23:44:02.605Z,58.33
2022-12-13T23:46:33.044Z,59.21
2022-12-13T23:49:00.049Z,58.40
2022-12-13T23:51:32.148Z,58.96
2022-12-13T23:53:58.978Z,58.15
2022-12-13T23:56:25.764Z,58.27
2022-12-13T23:58:52.381Z,58.10
